sensor_id;sensor_type;location;lat;lon;timestamp;pressure;altitude;pressure_sealevel;temperature;humidity
47366;BME280;33105;47.964;7.982;2023-02-27T00:01:42;96643.91;;;-1.48;62.76
47366;BME280;33105;47.964;7.982;2023-02-27T00:04:44;96634.47;;;-1.44;62.40
47366;BME280;33105;47.964;7.982;2023-02-27T00:07:45;96636.75;;;-1.41;61.94
47366;BME280;33105;47.964;7.982;2023-02-27T00:10:46;96635.16;;;-1.57;63.04
47366;BME280;33105;47.964;7.982;2023-02-27T00:13:47;96646.78;;;-1.50;62.56
47366;BME280;33105;47.964;7.982;2023-02-27T00:16:49;96639.59;;;-1.49;63.15
47366;BME280;33105;47.964;7.982;2023-02-27T00:19:50;96634.00;;;-1.48;62.41
47366;BME280;33105;47.964;7.982;2023-02-27T00:22:51;96633.19;;;-1.48;62.27
47366;BME280;33105;47.964;7.982;2023-02-27T00:25:53;96642.13;;;-1.41;62.09
47366;BME280;33105;47.964;7.982;2023-02-27T00:28:55;96633.63;;;-1.45;62.55
47366;BME280;33105;47.964;7.982;2023-02-27T00:31:56;96626.69;;;-1.39;62.48
47366;BME280;33105;47.964;7.982;2023-02-27T00:34:58;96624.19;;;-1.41;62.91
47366;BME280;33105;47.964;7.982;2023-02-27T00:38:00;96621.22;;;-1.31;63.11
47366;BME280;33105;47.964;7.982;2023-02-27T00:41:01;96629.25;;;-1.31;61.83
47366;BME280;33105;47.964;7.982;2023-02-27T00:44:02;96621.25;;;-1.46;62.43
47366;BME280;33105;47.964;7.982;2023-02-27T00:47:04;96616.81;;;-1.39;60.50
47366;BME280;33105;47.964;7.982;2023-02-27T00:50:07;96615.97;;;-1.39;61.44
47366;BME280;33105;47.964;7.982;2023-02-27T00:53:08;96625.03;;;-1.40;61.78
47366;BME280;33105;47.964;7.982;2023-02-27T00:56:10;96621.78;;;-1.35;62.63
47366;BME280;33105;47.964;7.982;2023-02-27T00:59:11;96617.44;;;-1.37;61.30
47366;BME280;33105;47.964;7.982;2023-02-27T01:02:12;96619.75;;;-1.33;61.81
47366;BME280;33105;47.964;7.982;2023-02-27T01:05:13;96612.66;;;-1.41;61.20
47366;BME280;33105;47.964;7.982;2023-02-27T01:08:14;96618.72;;;-1.32;60.22
47366;BME280;33105;47.964;7.982;2023-02-27T01:11:16;96622.63;;;-1.35;58.74
47366;BME280;33105;47.964;7.982;2023-02-27T01:14:17;96595.06;;;-1.29;59.29
47366;BME280;33105;47.964;7.982;2023-02-27T01:17:19;96594.72;;;-1.62;62.33
47366;BME280;33105;47.964;7.982;2023-02-27T01:20:21;96604.94;;;-1.51;61.08
47366;BME280;33105;47.964;7.982;2023-02-27T01:23:22;96604.03;;;-1.58;60.67
47366;BME280;33105;47.964;7.982;2023-02-27T01:26:24;96601.44;;;-1.51;60.36
47366;BME280;33105;47.964;7.982;2023-02-27T01:29:25;96619.22;;;-1.44;61.04
47366;BME280;33105;47.964;7.982;2023-02-27T01:32:26;96607.47;;;-1.64;61.60
47366;BME280;33105;47.964;7.982;2023-02-27T01:35:28;96610.16;;;-1.64;61.51
47366;BME280;33105;47.964;7.982;2023-02-27T01:38:29;96614.03;;;-1.66;61.91
47366;BME280;33105;47.964;7.982;2023-02-27T01:41:30;96611.63;;;-1.61;61.57
47366;BME280;33105;47.964;7.982;2023-02-27T01:48:28;96618.81;;;-1.62;62.38
47366;BME280;33105;47.964;7.982;2023-02-27T01:51:35;96616.34;;;-1.63;62.50
47366;BME280;33105;47.964;7.982;2023-02-27T01:54:39;96622.16;;;-1.60;61.91
47366;BME280;33105;47.964;7.982;2023-02-27T01:57:43;96608.50;;;-1.65;61.21
47366;BME280;33105;47.964;7.982;2023-02-27T02:00:46;96617.06;;;-1.55;61.38
47366;BME280;33105;47.964;7.982;2023-02-27T02:03:58;96612.44;;;-1.61;61.40
47366;BME280;33105;47.964;7.982;2023-02-27T02:07:12;96608.88;;;-1.68;61.62
47366;BME280;33105;47.964;7.982;2023-02-27T02:10:14;96601.84;;;-1.69;61.58
47366;BME280;33105;47.964;7.982;2023-02-27T02:13:17;96599.16;;;-1.69;61.31
47366;BME280;33105;47.964;7.982;2023-02-27T02:49:48;96589.22;;;-1.75;61.96
47366;BME280;33105;47.964;7.982;2023-02-27T02:56:45;96587.31;;;-1.60;60.67
47366;BME280;33105;47.964;7.982;2023-02-27T03:00:01;96584.44;;;-1.80;61.85
47366;BME280;33105;47.964;7.982;2023-02-27T03:03:13;96582.16;;;-1.97;62.79
47366;BME280;33105;47.964;7.982;2023-02-27T03:06:30;96606.03;;;-1.81;62.98
47366;BME280;33105;47.964;7.982;2023-02-27T03:09:47;96588.97;;;-1.80;63.12
47366;BME280;33105;47.964;7.982;2023-02-27T03:12:56;96594.50;;;-1.82;61.62
47366;BME280;33105;47.964;7.982;2023-02-27T03:16:44;96593.81;;;-1.69;60.65
47366;BME280;33105;47.964;7.982;2023-02-27T03:19:29;96597.88;;;-1.73;61.64
47366;BME280;33105;47.964;7.982;2023-02-27T03:22:51;96592.19;;;-1.85;62.45
47366;BME280;33105;47.964;7.982;2023-02-27T03:25:55;96593.22;;;-1.86;61.59
47366;BME280;33105;47.964;7.982;2023-02-27T03:29:00;96611.03;;;-1.78;61.94
47366;BME280;33105;47.964;7.982;2023-02-27T03:32:10;96611.78;;;-1.84;61.24
47366;BME280;33105;47.964;7.982;2023-02-27T03:35:13;96610.00;;;-1.77;60.17
47366;BME280;33105;47.964;7.982;2023-02-27T03:38:33;96611.03;;;-1.78;62.00
47366;BME280;33105;47.964;7.982;2023-02-27T03:41:57;96611.72;;;-1.69;60.54
47366;BME280;33105;47.964;7.982;2023-02-27T03:45:39;96615.59;;;-1.72;61.29
47366;BME280;33105;47.964;7.982;2023-02-27T03:48:43;96626.47;;;-1.95;60.88
47366;BME280;33105;47.964;7.982;2023-02-27T03:51:45;96622.22;;;-1.89;62.13
47366;BME280;33105;47.964;7.982;2023-02-27T03:54:59;96616.63;;;-1.73;59.38
47366;BME280;33105;47.964;7.982;2023-02-27T03:58:02;96614.91;;;-1.81;60.69
47366;BME280;33105;47.964;7.982;2023-02-27T04:01:04;96643.25;;;-1.86;60.55
47366;BME280;33105;47.964;7.982;2023-02-27T04:04:10;96618.00;;;-1.98;61.08
47366;BME280;33105;47.964;7.982;2023-02-27T04:15:02;96625.63;;;-1.95;60.96
47366;BME280;33105;47.964;7.982;2023-02-27T04:22:21;96637.66;;;-2.06;61.15
47366;BME280;33105;47.964;7.982;2023-02-27T04:28:38;96641.69;;;-1.95;60.00
47366;BME280;33105;47.964;7.982;2023-02-27T04:31:50;96632.28;;;-1.91;59.84
47366;BME280;33105;47.964;7.982;2023-02-27T04:34:59;96627.94;;;-1.92;59.72
47366;BME280;33105;47.964;7.982;2023-02-27T04:38:10;96638.47;;;-1.91;60.19
47366;BME280;33105;47.964;7.982;2023-02-27T04:41:23;96637.09;;;-2.01;59.96
47366;BME280;33105;47.964;7.982;2023-02-27T04:44:26;96649.91;;;-1.97;60.31
47366;BME280;33105;47.964;7.982;2023-02-27T04:47:33;96643.84;;;-2.06;61.08
47366;BME280;33105;47.964;7.982;2023-02-27T04:50:39;96655.19;;;-2.03;60.87
47366;BME280;33105;47.964;7.982;2023-02-27T04:53:47;96656.13;;;-2.11;61.63
47366;BME280;33105;47.964;7.982;2023-02-27T04:56:53;96655.00;;;-2.02;60.90
47366;BME280;33105;47.964;7.982;2023-02-27T04:59:57;96665.13;;;-1.97;60.32
47366;BME280;33105;47.964;7.982;2023-02-27T05:03:17;96652.22;;;-1.94;60.63
47366;BME280;33105;47.964;7.982;2023-02-27T05:06:22;96657.38;;;-1.92;60.10
47366;BME280;33105;47.964;7.982;2023-02-27T05:09:32;96663.50;;;-1.98;60.56
47366;BME280;33105;47.964;7.982;2023-02-27T05:12:41;96665.91;;;-2.03;61.59
47366;BME280;33105;47.964;7.982;2023-02-27T05:15:53;96669.09;;;-1.93;59.74
47366;BME280;33105;47.964;7.982;2023-02-27T05:18:58;96669.66;;;-1.98;61.06
47366;BME280;33105;47.964;7.982;2023-02-27T05:25:26;96648.09;;;-2.11;60.51
47366;BME280;33105;47.964;7.982;2023-02-27T05:28:33;96652.78;;;-2.13;61.47
47366;BME280;33105;47.964;7.982;2023-02-27T05:31:46;96664.81;;;-2.24;62.92
47366;BME280;33105;47.964;7.982;2023-02-27T05:35:00;96667.00;;;-2.13;61.04
47366;BME280;33105;47.964;7.982;2023-02-27T05:38:22;96670.34;;;-2.11;61.53
47366;BME280;33105;47.964;7.982;2023-02-27T05:41:33;96676.44;;;-2.02;60.82
47366;BME280;33105;47.964;7.982;2023-02-27T05:44:41;96671.25;;;-2.03;61.33
47366;BME280;33105;47.964;7.982;2023-02-27T05:47:51;96671.22;;;-1.89;60.54
47366;BME280;33105;47.964;7.982;2023-02-27T05:50:54;96665.25;;;-2.06;61.32
47366;BME280;33105;47.964;7.982;2023-02-27T05:54:00;96659.44;;;-2.09;61.07
47366;BME280;33105;47.964;7.982;2023-02-27T05:57:07;96675.47;;;-1.94;61.04
47366;BME280;33105;47.964;7.982;2023-02-27T06:00:14;96676.97;;;-2.07;61.61
47366;BME280;33105;47.964;7.982;2023-02-27T06:03:16;96680.09;;;-2.18;61.59
47366;BME280;33105;47.964;7.982;2023-02-27T06:06:18;96678.47;;;-2.04;61.48
47366;BME280;33105;47.964;7.982;2023-02-27T06:09:19;96679.66;;;-2.07;61.05
47366;BME280;33105;47.964;7.982;2023-02-27T06:12:21;96665.13;;;-1.97;61.29
47366;BME280;33105;47.964;7.982;2023-02-27T06:15:22;96679.09;;;-2.02;61.19
47366;BME280;33105;47.964;7.982;2023-02-27T06:18:24;96713.13;;;-1.96;60.79
47366;BME280;33105;47.964;7.982;2023-02-27T06:21:25;96684.38;;;-2.09;61.19
47366;BME280;33105;47.964;7.982;2023-02-27T06:24:26;96687.41;;;-2.12;60.53
47366;BME280;33105;47.964;7.982;2023-02-27T06:27:27;96694.53;;;-2.04;60.86
47366;BME280;33105;47.964;7.982;2023-02-27T06:30:29;96691.38;;;-2.08;61.23
47366;BME280;33105;47.964;7.982;2023-02-27T06:33:30;96709.56;;;-2.03;60.94
47366;BME280;33105;47.964;7.982;2023-02-27T06:36:31;96695.88;;;-1.93;60.40
47366;BME280;33105;47.964;7.982;2023-02-27T06:39:32;96705.28;;;-1.97;60.97
47366;BME280;33105;47.964;7.982;2023-02-27T06:42:34;96710.75;;;-2.06;61.53
47366;BME280;33105;47.964;7.982;2023-02-27T06:45:35;96721.75;;;-2.00;60.64
47366;BME280;33105;47.964;7.982;2023-02-27T06:48:36;96700.69;;;-2.03;60.10
47366;BME280;33105;47.964;7.982;2023-02-27T06:51:38;96717.13;;;-1.92;59.50
47366;BME280;33105;47.964;7.982;2023-02-27T06:54:39;96715.91;;;-1.89;60.38
47366;BME280;33105;47.964;7.982;2023-02-27T06:57:40;96724.31;;;-1.92;59.73
47366;BME280;33105;47.964;7.982;2023-02-27T07:00:42;96732.81;;;-1.89;59.78
47366;BME280;33105;47.964;7.982;2023-02-27T07:03:43;96723.13;;;-1.75;59.02
47366;BME280;33105;47.964;7.982;2023-02-27T07:06:44;96729.38;;;-1.68;59.36
47366;BME280;33105;47.964;7.982;2023-02-27T07:09:45;96743.31;;;-1.73;60.16
47366;BME280;33105;47.964;7.982;2023-02-27T07:12:47;96730.50;;;-1.77;59.02
47366;BME280;33105;47.964;7.982;2023-02-27T07:15:49;96735.41;;;-1.81;59.23
47366;BME280;33105;47.964;7.982;2023-02-27T07:18:50;96741.22;;;-1.92;59.66
47366;BME280;33105;47.964;7.982;2023-02-27T07:21:51;96742.59;;;-1.81;61.18
47366;BME280;33105;47.964;7.982;2023-02-27T07:24:52;96742.50;;;-1.73;59.30
47366;BME280;33105;47.964;7.982;2023-02-27T07:27:53;96751.19;;;-1.71;58.81
47366;BME280;33105;47.964;7.982;2023-02-27T07:30:55;96753.75;;;-1.63;58.66
47366;BME280;33105;47.964;7.982;2023-02-27T07:33:56;96756.53;;;-1.56;60.19
47366;BME280;33105;47.964;7.982;2023-02-27T07:36:57;96758.38;;;-1.57;60.30
47366;BME280;33105;47.964;7.982;2023-02-27T07:39:58;96747.84;;;-1.58;59.83
47366;BME280;33105;47.964;7.982;2023-02-27T07:43:00;96758.38;;;-1.57;58.82
47366;BME280;33105;47.964;7.982;2023-02-27T07:46:01;96768.72;;;-1.54;59.09
47366;BME280;33105;47.964;7.982;2023-02-27T07:49:04;96767.41;;;-1.43;59.41
47366;BME280;33105;47.964;7.982;2023-02-27T07:52:05;96765.47;;;-1.34;59.81
47366;BME280;33105;47.964;7.982;2023-02-27T07:55:09;96784.78;;;-1.39;60.08
47366;BME280;33105;47.964;7.982;2023-02-27T07:58:10;96779.78;;;-1.27;58.94
47366;BME280;33105;47.964;7.982;2023-02-27T08:01:12;96773.28;;;-1.18;60.50
47366;BME280;33105;47.964;7.982;2023-02-27T08:04:13;96773.00;;;-1.23;60.30
47366;BME280;33105;47.964;7.982;2023-02-27T08:07:14;96776.97;;;-1.05;59.13
47366;BME280;33105;47.964;7.982;2023-02-27T08:10:15;96785.38;;;-1.08;58.73
47366;BME280;33105;47.964;7.982;2023-02-27T08:13:17;96788.00;;;-0.93;59.31
47366;BME280;33105;47.964;7.982;2023-02-27T08:16:18;96785.72;;;-0.96;58.72
47366;BME280;33105;47.964;7.982;2023-02-27T08:19:20;96785.97;;;-0.91;61.81
47366;BME280;33105;47.964;7.982;2023-02-27T08:22:21;96785.69;;;-0.81;59.40
47366;BME280;33105;47.964;7.982;2023-02-27T08:25:23;96792.91;;;-0.82;59.61
47366;BME280;33105;47.964;7.982;2023-02-27T08:28:24;96802.66;;;-0.74;60.09
47366;BME280;33105;47.964;7.982;2023-02-27T08:31:26;96803.19;;;-0.64;58.04
47366;BME280;33105;47.964;7.982;2023-02-27T08:34:27;96805.97;;;-0.72;58.82
47366;BME280;33105;47.964;7.982;2023-02-27T08:37:30;96794.44;;;-0.51;57.04
47366;BME280;33105;47.964;7.982;2023-02-27T08:40:31;96803.34;;;-0.51;59.32
47366;BME280;33105;47.964;7.982;2023-02-27T08:43:33;96801.78;;;-0.39;58.75
47366;BME280;33105;47.964;7.982;2023-02-27T08:46:34;96795.38;;;-0.16;57.23
47366;BME280;33105;47.964;7.982;2023-02-27T08:49:35;96805.00;;;-0.01;57.82
47366;BME280;33105;47.964;7.982;2023-02-27T08:52:37;96809.75;;;-0.03;57.06
47366;BME280;33105;47.964;7.982;2023-02-27T08:55:39;96799.97;;;-0.10;56.64
47366;BME280;33105;47.964;7.982;2023-02-27T08:58:40;96805.19;;;-0.30;58.57
47366;BME280;33105;47.964;7.982;2023-02-27T09:01:41;96818.13;;;-0.12;56.59
47366;BME280;33105;47.964;7.982;2023-02-27T09:04:42;96819.97;;;-0.13;57.67
47366;BME280;33105;47.964;7.982;2023-02-27T09:07:43;96817.28;;;-0.13;58.15
47366;BME280;33105;47.964;7.982;2023-02-27T09:10:45;96818.25;;;-0.20;57.04
47366;BME280;33105;47.964;7.982;2023-02-27T09:13:46;96818.31;;;-0.14;57.72
47366;BME280;33105;47.964;7.982;2023-02-27T09:16:47;96836.41;;;-0.22;57.73
47366;BME280;33105;47.964;7.982;2023-02-27T09:19:48;96825.84;;;-0.24;57.37
47366;BME280;33105;47.964;7.982;2023-02-27T09:22:51;96816.38;;;0.02;56.39
47366;BME280;33105;47.964;7.982;2023-02-27T09:25:52;96831.91;;;0.06;55.67
47366;BME280;33105;47.964;7.982;2023-02-27T09:28:53;96827.31;;;0.28;55.54
47366;BME280;33105;47.964;7.982;2023-02-27T09:31:55;96837.53;;;0.39;55.77
47366;BME280;33105;47.964;7.982;2023-02-27T09:34:56;96841.50;;;0.43;54.42
47366;BME280;33105;47.964;7.982;2023-02-27T09:37:58;96845.72;;;0.31;53.88
47366;BME280;33105;47.964;7.982;2023-02-27T09:41:00;96850.25;;;0.24;55.54
47366;BME280;33105;47.964;7.982;2023-02-27T09:44:02;96843.22;;;0.23;56.14
47366;BME280;33105;47.964;7.982;2023-02-27T09:47:05;96859.94;;;0.25;56.40
47366;BME280;33105;47.964;7.982;2023-02-27T09:50:35;96861.19;;;0.22;57.09
47366;BME280;33105;47.964;7.982;2023-02-27T09:53:40;96864.69;;;0.51;56.16
47366;BME280;33105;47.964;7.982;2023-02-27T09:56:51;96870.28;;;0.49;53.96
47366;BME280;33105;47.964;7.982;2023-02-27T09:59:57;96869.53;;;0.34;55.47
47366;BME280;33105;47.964;7.982;2023-02-27T10:06:41;96880.59;;;0.46;55.13
47366;BME280;33105;47.964;7.982;2023-02-27T10:16:10;96893.47;;;0.57;55.50
47366;BME280;33105;47.964;7.982;2023-02-27T10:19:16;96893.91;;;0.60;54.78
47366;BME280;33105;47.964;7.982;2023-02-27T10:22:27;96881.03;;;0.84;54.21
47366;BME280;33105;47.964;7.982;2023-02-27T10:25:33;96893.59;;;0.77;54.67
47366;BME280;33105;47.964;7.982;2023-02-27T10:28:39;96895.25;;;0.78;53.32
47366;BME280;33105;47.964;7.982;2023-02-27T10:31:41;96899.97;;;0.97;53.36
47366;BME280;33105;47.964;7.982;2023-02-27T10:34:54;96908.97;;;1.24;51.44
47366;BME280;33105;47.964;7.982;2023-02-27T10:38:07;96900.59;;;1.53;50.11
47366;BME280;33105;47.964;7.982;2023-02-27T10:41:14;96900.09;;;1.84;51.14
47366;BME280;33105;47.964;7.982;2023-02-27T10:44:16;96915.22;;;1.98;51.15
47366;BME280;33105;47.964;7.982;2023-02-27T10:47:23;96904.66;;;1.90;52.24
47366;BME280;33105;47.964;7.982;2023-02-27T10:50:33;96899.25;;;1.84;51.22
47366;BME280;33105;47.964;7.982;2023-02-27T10:53:35;96905.66;;;1.76;50.90
47366;BME280;33105;47.964;7.982;2023-02-27T10:56:36;96894.19;;;1.48;52.75
47366;BME280;33105;47.964;7.982;2023-02-27T10:59:40;96904.19;;;1.67;51.96
47366;BME280;33105;47.964;7.982;2023-02-27T11:02:42;96906.84;;;1.60;50.91
47366;BME280;33105;47.964;7.982;2023-02-27T11:05:55;96915.63;;;1.82;51.94
47366;BME280;33105;47.964;7.982;2023-02-27T11:09:10;96914.78;;;1.82;51.99
47366;BME280;33105;47.964;7.982;2023-02-27T11:12:19;96912.91;;;1.69;50.75
47366;BME280;33105;47.964;7.982;2023-02-27T11:15:25;96925.13;;;1.72;50.77
47366;BME280;33105;47.964;7.982;2023-02-27T11:18:27;96915.19;;;1.72;49.43
47366;BME280;33105;47.964;7.982;2023-02-27T11:21:29;96914.97;;;1.74;50.04
47366;BME280;33105;47.964;7.982;2023-02-27T11:24:31;96902.94;;;1.76;49.60
47366;BME280;33105;47.964;7.982;2023-02-27T11:27:33;96914.00;;;1.94;53.23
47366;BME280;33105;47.964;7.982;2023-02-27T11:30:34;96912.75;;;2.03;50.57
47366;BME280;33105;47.964;7.982;2023-02-27T11:33:38;96915.84;;;2.00;49.35
47366;BME280;33105;47.964;7.982;2023-02-27T11:36:46;96924.38;;;1.97;50.39
47366;BME280;33105;47.964;7.982;2023-02-27T11:39:50;96922.50;;;2.04;50.32
47366;BME280;33105;47.964;7.982;2023-02-27T11:42:59;96915.28;;;2.18;49.94
47366;BME280;33105;47.964;7.982;2023-02-27T11:46:04;96922.72;;;2.10;48.75
47366;BME280;33105;47.964;7.982;2023-02-27T11:49:33;96920.44;;;1.93;50.28
47366;BME280;33105;47.964;7.982;2023-02-27T11:52:49;96917.94;;;1.98;48.65
47366;BME280;33105;47.964;7.982;2023-02-27T11:55:55;96925.56;;;1.82;50.36
47366;BME280;33105;47.964;7.982;2023-02-27T11:59:23;96928.25;;;1.82;50.83
47366;BME280;33105;47.964;7.982;2023-02-27T12:02:42;96939.09;;;1.41;50.60
47366;BME280;33105;47.964;7.982;2023-02-27T12:05:49;96929.63;;;1.58;52.76
47366;BME280;33105;47.964;7.982;2023-02-27T12:09:04;96955.31;;;1.60;51.91
47366;BME280;33105;47.964;7.982;2023-02-27T12:12:18;96950.41;;;1.77;52.35
47366;BME280;33105;47.964;7.982;2023-02-27T12:15:33;96944.81;;;1.72;50.48
47366;BME280;33105;47.964;7.982;2023-02-27T12:18:44;96951.75;;;1.47;51.46
47366;BME280;33105;47.964;7.982;2023-02-27T12:21:57;96945.41;;;1.67;52.08
47366;BME280;33105;47.964;7.982;2023-02-27T12:25:06;96951.78;;;1.60;50.51
47366;BME280;33105;47.964;7.982;2023-02-27T12:28:19;96954.50;;;1.60;52.26
47366;BME280;33105;47.964;7.982;2023-02-27T12:31:35;96942.94;;;1.66;50.84
47366;BME280;33105;47.964;7.982;2023-02-27T12:34:54;96945.41;;;1.67;49.63
47366;BME280;33105;47.964;7.982;2023-02-27T12:38:00;96925.97;;;1.72;48.99
47366;BME280;33105;47.964;7.982;2023-02-27T12:51:41;96937.94;;;1.63;48.81
47366;BME280;33105;47.964;7.982;2023-02-27T13:04:43;96941.81;;;1.54;47.92
47366;BME280;33105;47.964;7.982;2023-02-27T13:20:43;96949.25;;;1.52;51.59
47366;BME280;33105;47.964;7.982;2023-02-27T13:24:14;96950.78;;;1.26;50.30
47366;BME280;33105;47.964;7.982;2023-02-27T13:30:39;96950.59;;;1.28;48.59
47366;BME280;33105;47.964;7.982;2023-02-27T13:37:10;96949.78;;;1.27;52.09
47366;BME280;33105;47.964;7.982;2023-02-27T13:43:35;96956.06;;;1.41;50.63
47366;BME280;33105;47.964;7.982;2023-02-27T13:46:36;96954.22;;;1.42;49.10
47366;BME280;33105;47.964;7.982;2023-02-27T13:49:43;96949.41;;;1.37;48.62
47366;BME280;33105;47.964;7.982;2023-02-27T13:52:45;96958.84;;;1.20;49.09
47366;BME280;33105;47.964;7.982;2023-02-27T13:55:46;96973.78;;;1.22;50.05
47366;BME280;33105;47.964;7.982;2023-02-27T13:58:49;96959.84;;;1.12;48.73
47366;BME280;33105;47.964;7.982;2023-02-27T14:01:54;96962.69;;;1.04;49.52
47366;BME280;33105;47.964;7.982;2023-02-27T14:04:58;96960.91;;;1.18;52.07
47366;BME280;33105;47.964;7.982;2023-02-27T14:08:08;96963.41;;;1.19;50.18
47366;BME280;33105;47.964;7.982;2023-02-27T14:11:18;96959.53;;;0.94;51.21
47366;BME280;33105;47.964;7.982;2023-02-27T14:14:44;96959.88;;;1.19;51.31
47366;BME280;33105;47.964;7.982;2023-02-27T14:17:50;96954.25;;;1.14;51.36
47366;BME280;33105;47.964;7.982;2023-02-27T14:20:52;96956.59;;;0.89;51.27
47366;BME280;33105;47.964;7.982;2023-02-27T14:23:53;96968.75;;;0.85;51.61
47366;BME280;33105;47.964;7.982;2023-02-27T14:26:55;96978.97;;;0.68;51.95
47366;BME280;33105;47.964;7.982;2023-02-27T14:30:00;96969.38;;;0.59;53.83
47366;BME280;33105;47.964;7.982;2023-02-27T14:33:21;96972.13;;;0.65;51.12
47366;BME280;33105;47.964;7.982;2023-02-27T14:39:34;96987.06;;;0.75;52.59
47366;BME280;33105;47.964;7.982;2023-02-27T14:42:54;96978.41;;;0.73;52.98
47366;BME280;33105;47.964;7.982;2023-02-27T14:46:06;96975.22;;;0.90;52.52
47366;BME280;33105;47.964;7.982;2023-02-27T14:49:19;96985.16;;;0.90;51.77
47366;BME280;33105;47.964;7.982;2023-02-27T14:52:29;96982.44;;;0.90;50.82
47366;BME280;33105;47.964;7.982;2023-02-27T14:55:35;96967.88;;;0.78;49.58
47366;BME280;33105;47.964;7.982;2023-02-27T14:58:36;96977.84;;;0.84;49.82
47366;BME280;33105;47.964;7.982;2023-02-27T15:01:37;96978.75;;;0.91;50.08
47366;BME280;33105;47.964;7.982;2023-02-27T15:04:39;96980.22;;;0.93;50.56
47366;BME280;33105;47.964;7.982;2023-02-27T15:07:43;96977.06;;;0.90;50.51
47366;BME280;33105;47.964;7.982;2023-02-27T15:10:46;96970.72;;;0.97;51.63
47366;BME280;33105;47.964;7.982;2023-02-27T15:14:14;96969.00;;;0.90;50.29
47366;BME280;33105;47.964;7.982;2023-02-27T15:17:16;96983.53;;;0.95;50.73
47366;BME280;33105;47.964;7.982;2023-02-27T15:20:22;96980.41;;;0.92;51.20
47366;BME280;33105;47.964;7.982;2023-02-27T15:23:26;96977.22;;;0.82;49.55
47366;BME280;33105;47.964;7.982;2023-02-27T15:26:29;96971.06;;;0.88;51.10
47366;BME280;33105;47.964;7.982;2023-02-27T15:29:35;96984.25;;;0.83;51.23
47366;BME280;33105;47.964;7.982;2023-02-27T15:32:40;96985.53;;;0.87;50.32
47366;BME280;33105;47.964;7.982;2023-02-27T15:35:45;96990.47;;;0.83;50.04
47366;BME280;33105;47.964;7.982;2023-02-27T15:39:02;96989.16;;;0.73;50.73
47366;BME280;33105;47.964;7.982;2023-02-27T15:42:05;97001.91;;;0.64;51.55
47366;BME280;33105;47.964;7.982;2023-02-27T15:45:07;97001.91;;;0.64;50.57
47366;BME280;33105;47.964;7.982;2023-02-27T15:48:12;96998.75;;;0.60;50.62
47366;BME280;33105;47.964;7.982;2023-02-27T15:51:14;97008.56;;;0.68;50.77
47366;BME280;33105;47.964;7.982;2023-02-27T15:54:19;97008.09;;;0.64;51.77
47366;BME280;33105;47.964;7.982;2023-02-27T15:57:21;97016.38;;;0.63;52.21
47366;BME280;33105;47.964;7.982;2023-02-27T16:00:23;97010.84;;;0.50;50.59
47366;BME280;33105;47.964;7.982;2023-02-27T16:03:27;97014.63;;;0.55;50.05
47366;BME280;33105;47.964;7.982;2023-02-27T16:06:33;97013.13;;;0.46;50.82
47366;BME280;33105;47.964;7.982;2023-02-27T16:09:36;97008.41;;;0.55;51.30
47366;BME280;33105;47.964;7.982;2023-02-27T16:12:38;97015.66;;;0.54;50.71
47366;BME280;33105;47.964;7.982;2023-02-27T16:15:39;97015.63;;;0.48;50.83
47366;BME280;33105;47.964;7.982;2023-02-27T16:18:52;97023.16;;;0.38;51.55
47366;BME280;33105;47.964;7.982;2023-02-27T16:22:14;97020.28;;;0.39;51.70
47366;BME280;33105;47.964;7.982;2023-02-27T16:25:17;97018.22;;;0.41;52.72
47366;BME280;33105;47.964;7.982;2023-02-27T16:28:20;97020.97;;;0.26;51.29
47366;BME280;33105;47.964;7.982;2023-02-27T16:34:39;97025.06;;;0.22;51.85
47366;BME280;33105;47.964;7.982;2023-02-27T16:37:42;97023.84;;;0.25;51.54
47366;BME280;33105;47.964;7.982;2023-02-27T16:40:45;97036.22;;;0.05;53.65
47366;BME280;33105;47.964;7.982;2023-02-27T16:43:47;97037.00;;;-0.02;52.62
47366;BME280;33105;47.964;7.982;2023-02-27T16:46:49;97031.75;;;0.12;52.19
47366;BME280;33105;47.964;7.982;2023-02-27T16:49:51;97037.56;;;-0.06;52.39
47366;BME280;33105;47.964;7.982;2023-02-27T16:52:52;97038.50;;;-0.14;53.02
47366;BME280;33105;47.964;7.982;2023-02-27T16:55:53;97048.41;;;-0.14;54.26
47366;BME280;33105;47.964;7.982;2023-02-27T16:58:55;97052.66;;;-0.20;54.35
47366;BME280;33105;47.964;7.982;2023-02-27T17:01:57;97058.41;;;-0.23;53.45
47366;BME280;33105;47.964;7.982;2023-02-27T17:04:58;97061.28;;;-0.10;53.00
47366;BME280;33105;47.964;7.982;2023-02-27T17:08:00;97063.34;;;-0.26;53.55
47366;BME280;33105;47.964;7.982;2023-02-27T17:11:01;97071.00;;;-0.23;54.64
47366;BME280;33105;47.964;7.982;2023-02-27T17:14:04;97074.13;;;-0.20;52.87
47366;BME280;33105;47.964;7.982;2023-02-27T17:17:05;97083.50;;;-0.16;54.05
47366;BME280;33105;47.964;7.982;2023-02-27T17:20:08;97088.78;;;-0.08;51.93
47366;BME280;33105;47.964;7.982;2023-02-27T17:23:10;97081.41;;;0.01;51.77
47366;BME280;33105;47.964;7.982;2023-02-27T17:26:12;97100.81;;;-0.04;51.87
47366;BME280;33105;47.964;7.982;2023-02-27T17:29:14;97098.69;;;-0.08;52.28
47366;BME280;33105;47.964;7.982;2023-02-27T17:32:16;97098.22;;;-0.12;53.62
47366;BME280;33105;47.964;7.982;2023-02-27T17:35:17;97101.28;;;-0.15;53.48
47366;BME280;33105;47.964;7.982;2023-02-27T17:38:18;97109.59;;;-0.10;52.76
47366;BME280;33105;47.964;7.982;2023-02-27T17:41:21;97093.78;;;-0.19;52.99
47366;BME280;33105;47.964;7.982;2023-02-27T17:44:22;97105.28;;;-0.25;53.42
47366;BME280;33105;47.964;7.982;2023-02-27T17:47:24;97111.84;;;-0.28;53.57
47366;BME280;33105;47.964;7.982;2023-02-27T17:50:25;97115.25;;;-0.34;53.64
47366;BME280;33105;47.964;7.982;2023-02-27T17:53:26;97118.78;;;-0.33;54.54
47366;BME280;33105;47.964;7.982;2023-02-27T17:56:28;97123.41;;;-0.27;53.50
47366;BME280;33105;47.964;7.982;2023-02-27T17:59:29;97138.31;;;-0.25;52.15
47366;BME280;33105;47.964;7.982;2023-02-27T18:02:31;97128.13;;;-0.29;53.22
47366;BME280;33105;47.964;7.982;2023-02-27T18:05:33;97138.31;;;-0.25;50.75
47366;BME280;33105;47.964;7.982;2023-02-27T18:08:35;97136.66;;;-0.26;53.11
47366;BME280;33105;47.964;7.982;2023-02-27T18:11:36;97144.72;;;-0.26;52.16
47366;BME280;33105;47.964;7.982;2023-02-27T18:14:37;97144.50;;;-0.24;52.11
47366;BME280;33105;47.964;7.982;2023-02-27T18:17:38;97146.28;;;-0.31;52.54
47366;BME280;33105;47.964;7.982;2023-02-27T18:20:39;97154.50;;;-0.33;52.46
47366;BME280;33105;47.964;7.982;2023-02-27T18:23:42;97157.00;;;-0.31;52.46
47366;BME280;33105;47.964;7.982;2023-02-27T18:26:43;97147.59;;;-0.27;52.26